sensor_id;sensor_type;location;lat;lon;timestamp;P1;durP1;ratioP1;P2;durP2;ratioP2
38851;SDS011;24605;50.092;9.182;2024-03-06T00:01:10;43.97;;;21.83;;
38851;SDS011;24605;50.092;9.182;2024-03-06T00:03:37;44.92;;;21.45;;
38851;SDS011;24605;50.092;9.182;2024-03-06T00:06:05;42.00;;;20.83;;
38851;SDS011;24605;50.092;9.182;2024-03-06T00:08:31;42.05;;;21.00;;
38851;SDS011;24605;50.092;9.182;2024-03-06T00:10:58;37.03;;;20.13;;
38851;SDS011;24605;50.092;9.182;2024-03-06T00:13:24;35.30;;;18.23;;
38851;SDS011;24605;50.092;9.182;2024-03-06T00:15:51;35.33;;;19.45;;
38851;SDS011;24605;50.092;9.182;2024-03-06T00:18:17;38.42;;;19.50;;
38851;SDS011;24605;50.092;9.182;2024-03-06T00:20:44;40.45;;;19.45;;
38851;SDS011;24605;50.092;9.182;2024-03-06T00:23:12;35.90;;;19.00;;
38851;SDS011;24605;50.092;9.182;2024-03-06T00:25:38;33.13;;;18.48;;
38851;SDS011;24605;50.092;9.182;2024-03-06T00:28:05;37.95;;;19.27;;
38851;SDS011;24605;50.092;9.182;2024-03-06T00:30:32;35.28;;;18.45;;
38851;SDS011;24605;50.092;9.182;2024-03-06T00:32:58;35.95;;;19.65;;
38851;SDS011;24605;50.092;9.182;2024-03-06T00:35:25;39.58;;;19.45;;
38851;SDS011;24605;50.092;9.182;2024-03-06T00:37:53;38.72;;;18.48;;
38851;SDS011;24605;50.092;9.182;2024-03-06T00:40:21;37.25;;;19.60;;
38851;SDS011;24605;50.092;9.182;2024-03-06T00:42:48;41.63;;;20.38;;
38851;SDS011;24605;50.092;9.182;2024-03-06T00:45:15;36.30;;;18.83;;
38851;SDS011;24605;50.092;9.182;2024-03-06T00:47:41;32.83;;;17.58;;
38851;SDS011;24605;50.092;9.182;2024-03-06T00:50:08;44.55;;;21.80;;
38851;SDS011;24605;50.092;9.182;2024-03-06T00:52:35;42.63;;;20.42;;
38851;SDS011;24605;50.092;9.182;2024-03-06T00:55:01;39.42;;;20.52;;
38851;SDS011;24605;50.092;9.182;2024-03-06T00:57:29;37.08;;;19.52;;
38851;SDS011;24605;50.092;9.182;2024-03-06T00:59:56;36.30;;;20.10;;
38851;SDS011;24605;50.092;9.182;2024-03-06T01:02:22;41.42;;;20.90;;
38851;SDS011;24605;50.092;9.182;2024-03-06T01:04:49;38.97;;;20.33;;
38851;SDS011;24605;50.092;9.182;2024-03-06T01:07:15;37.28;;;19.35;;
38851;SDS011;24605;50.092;9.182;2024-03-06T01:09:42;41.47;;;21.25;;
38851;SDS011;24605;50.092;9.182;2024-03-06T01:12:08;41.78;;;21.23;;
38851;SDS011;24605;50.092;9.182;2024-03-06T01:14:37;42.72;;;20.02;;
38851;SDS011;24605;50.092;9.182;2024-03-06T01:17:03;42.00;;;20.30;;
38851;SDS011;24605;50.092;9.182;2024-03-06T01:19:30;42.17;;;21.25;;
38851;SDS011;24605;50.092;9.182;2024-03-06T01:21:56;42.78;;;20.40;;
38851;SDS011;24605;50.092;9.182;2024-03-06T01:24:23;44.42;;;21.23;;
38851;SDS011;24605;50.092;9.182;2024-03-06T01:26:49;44.17;;;23.10;;
38851;SDS011;24605;50.092;9.182;2024-03-06T01:29:16;41.60;;;21.98;;
38851;SDS011;24605;50.092;9.182;2024-03-06T01:31:44;40.30;;;22.45;;
38851;SDS011;24605;50.092;9.182;2024-03-06T01:34:11;43.88;;;22.20;;
38851;SDS011;24605;50.092;9.182;2024-03-06T01:36:38;43.78;;;22.17;;
38851;SDS011;24605;50.092;9.182;2024-03-06T01:39:05;40.70;;;21.48;;
38851;SDS011;24605;50.092;9.182;2024-03-06T01:41:31;40.20;;;21.05;;
38851;SDS011;24605;50.092;9.182;2024-03-06T01:43:58;39.30;;;20.17;;
38851;SDS011;24605;50.092;9.182;2024-03-06T01:46:24;47.75;;;22.30;;
38851;SDS011;24605;50.092;9.182;2024-03-06T01:48:52;47.28;;;22.58;;
38851;SDS011;24605;50.092;9.182;2024-03-06T01:51:19;47.47;;;23.10;;
38851;SDS011;24605;50.092;9.182;2024-03-06T01:53:46;47.13;;;23.13;;
38851;SDS011;24605;50.092;9.182;2024-03-06T01:56:13;48.72;;;24.08;;
38851;SDS011;24605;50.092;9.182;2024-03-06T01:58:42;44.40;;;22.83;;
38851;SDS011;24605;50.092;9.182;2024-03-06T02:01:11;40.65;;;21.40;;
38851;SDS011;24605;50.092;9.182;2024-03-06T02:03:38;43.55;;;21.75;;
38851;SDS011;24605;50.092;9.182;2024-03-06T02:06:07;38.92;;;20.60;;
38851;SDS011;24605;50.092;9.182;2024-03-06T02:08:36;43.17;;;22.13;;
38851;SDS011;24605;50.092;9.182;2024-03-06T02:11:02;42.25;;;20.63;;
38851;SDS011;24605;50.092;9.182;2024-03-06T02:13:29;43.08;;;20.77;;
38851;SDS011;24605;50.092;9.182;2024-03-06T02:15:56;42.20;;;20.92;;
38851;SDS011;24605;50.092;9.182;2024-03-06T02:18:23;39.28;;;19.80;;
38851;SDS011;24605;50.092;9.182;2024-03-06T02:20:51;42.30;;;21.35;;
38851;SDS011;24605;50.092;9.182;2024-03-06T02:23:16;43.28;;;20.88;;
38851;SDS011;24605;50.092;9.182;2024-03-06T02:25:45;42.97;;;22.52;;
38851;SDS011;24605;50.092;9.182;2024-03-06T02:28:12;39.05;;;20.70;;
38851;SDS011;24605;50.092;9.182;2024-03-06T02:30:38;46.08;;;20.83;;
38851;SDS011;24605;50.092;9.182;2024-03-06T02:33:05;41.05;;;20.23;;
38851;SDS011;24605;50.092;9.182;2024-03-06T02:35:32;38.50;;;18.92;;
38851;SDS011;24605;50.092;9.182;2024-03-06T02:38:01;44.78;;;20.27;;
38851;SDS011;24605;50.092;9.182;2024-03-06T02:40:29;40.28;;;19.23;;
38851;SDS011;24605;50.092;9.182;2024-03-06T02:42:56;44.33;;;21.92;;
38851;SDS011;24605;50.092;9.182;2024-03-06T02:45:23;43.92;;;21.83;;
38851;SDS011;24605;50.092;9.182;2024-03-06T02:47:49;46.10;;;21.42;;
38851;SDS011;24605;50.092;9.182;2024-03-06T02:50:16;43.75;;;21.40;;
38851;SDS011;24605;50.092;9.182;2024-03-06T02:52:43;40.47;;;19.90;;
38851;SDS011;24605;50.092;9.182;2024-03-06T02:55:11;43.00;;;22.58;;
38851;SDS011;24605;50.092;9.182;2024-03-06T02:57:37;45.13;;;21.48;;
38851;SDS011;24605;50.092;9.182;2024-03-06T03:00:04;50.65;;;24.42;;
38851;SDS011;24605;50.092;9.182;2024-03-06T03:02:34;47.08;;;23.67;;
38851;SDS011;24605;50.092;9.182;2024-03-06T03:05:00;48.33;;;25.25;;
38851;SDS011;24605;50.092;9.182;2024-03-06T03:07:28;47.42;;;23.23;;
38851;SDS011;24605;50.092;9.182;2024-03-06T03:09:54;44.08;;;23.58;;
38851;SDS011;24605;50.092;9.182;2024-03-06T03:12:22;50.97;;;23.85;;
38851;SDS011;24605;50.092;9.182;2024-03-06T03:14:48;51.28;;;25.48;;
38851;SDS011;24605;50.092;9.182;2024-03-06T03:17:15;47.25;;;24.13;;
38851;SDS011;24605;50.092;9.182;2024-03-06T03:19:41;53.90;;;27.25;;
38851;SDS011;24605;50.092;9.182;2024-03-06T03:22:07;49.17;;;25.13;;
38851;SDS011;24605;50.092;9.182;2024-03-06T03:24:35;51.50;;;24.98;;
38851;SDS011;24605;50.092;9.182;2024-03-06T03:27:02;54.05;;;26.38;;
38851;SDS011;24605;50.092;9.182;2024-03-06T03:29:30;52.72;;;25.17;;
38851;SDS011;24605;50.092;9.182;2024-03-06T03:31:56;50.10;;;24.15;;
38851;SDS011;24605;50.092;9.182;2024-03-06T03:34:23;47.97;;;24.17;;
38851;SDS011;24605;50.092;9.182;2024-03-06T03:36:52;46.58;;;23.38;;
38851;SDS011;24605;50.092;9.182;2024-03-06T03:39:18;47.92;;;24.02;;
38851;SDS011;24605;50.092;9.182;2024-03-06T03:41:47;52.08;;;24.98;;
38851;SDS011;24605;50.092;9.182;2024-03-06T03:44:14;52.97;;;24.13;;
38851;SDS011;24605;50.092;9.182;2024-03-06T03:46:46;49.40;;;23.17;;
38851;SDS011;24605;50.092;9.182;2024-03-06T03:49:13;44.35;;;22.20;;
38851;SDS011;24605;50.092;9.182;2024-03-06T03:51:39;41.70;;;20.52;;
38851;SDS011;24605;50.092;9.182;2024-03-06T03:54:06;45.92;;;21.48;;
38851;SDS011;24605;50.092;9.182;2024-03-06T03:56:33;41.38;;;21.15;;
38851;SDS011;24605;50.092;9.182;2024-03-06T03:58:59;44.00;;;21.15;;
38851;SDS011;24605;50.092;9.182;2024-03-06T04:01:26;86.68;;;51.58;;
38851;SDS011;24605;50.092;9.182;2024-03-06T04:03:54;59.90;;;33.95;;
38851;SDS011;24605;50.092;9.182;2024-03-06T04:06:21;49.22;;;23.23;;
38851;SDS011;24605;50.092;9.182;2024-03-06T04:08:47;45.35;;;21.15;;
38851;SDS011;24605;50.092;9.182;2024-03-06T04:11:14;45.33;;;21.75;;
38851;SDS011;24605;50.092;9.182;2024-03-06T04:13:41;51.38;;;23.25;;
38851;SDS011;24605;50.092;9.182;2024-03-06T04:16:07;64.55;;;20.63;;
38851;SDS011;24605;50.092;9.182;2024-03-06T04:18:34;42.25;;;20.23;;
38851;SDS011;24605;50.092;9.182;2024-03-06T04:21:03;39.67;;;19.40;;
38851;SDS011;24605;50.092;9.182;2024-03-06T04:23:30;38.38;;;20.25;;
38851;SDS011;24605;50.092;9.182;2024-03-06T04:25:57;41.78;;;19.35;;
38851;SDS011;24605;50.092;9.182;2024-03-06T04:28:23;39.42;;;18.98;;
38851;SDS011;24605;50.092;9.182;2024-03-06T04:30:50;38.15;;;17.75;;
38851;SDS011;24605;50.092;9.182;2024-03-06T04:33:16;39.13;;;18.05;;
38851;SDS011;24605;50.092;9.182;2024-03-06T04:35:43;40.13;;;18.35;;
38851;SDS011;24605;50.092;9.182;2024-03-06T04:38:10;40.05;;;18.98;;
38851;SDS011;24605;50.092;9.182;2024-03-06T04:40:37;41.33;;;19.08;;
38851;SDS011;24605;50.092;9.182;2024-03-06T04:43:04;44.38;;;20.70;;
38851;SDS011;24605;50.092;9.182;2024-03-06T04:45:31;50.85;;;21.98;;
38851;SDS011;24605;50.092;9.182;2024-03-06T04:47:58;50.92;;;21.20;;
38851;SDS011;24605;50.092;9.182;2024-03-06T04:50:25;45.20;;;20.02;;
38851;SDS011;24605;50.092;9.182;2024-03-06T04:52:52;47.00;;;20.25;;
38851;SDS011;24605;50.092;9.182;2024-03-06T04:55:20;41.53;;;19.60;;
38851;SDS011;24605;50.092;9.182;2024-03-06T04:57:47;43.33;;;20.73;;
38851;SDS011;24605;50.092;9.182;2024-03-06T05:00:15;48.95;;;23.88;;
38851;SDS011;24605;50.092;9.182;2024-03-06T05:02:43;49.15;;;22.77;;
38851;SDS011;24605;50.092;9.182;2024-03-06T05:05:10;53.45;;;24.70;;
38851;SDS011;24605;50.092;9.182;2024-03-06T05:07:36;49.92;;;23.70;;
38851;SDS011;24605;50.092;9.182;2024-03-06T05:10:03;55.70;;;26.65;;
38851;SDS011;24605;50.092;9.182;2024-03-06T05:12:34;72.95;;;30.33;;
38851;SDS011;24605;50.092;9.182;2024-03-06T05:15:00;60.28;;;28.33;;
38851;SDS011;24605;50.092;9.182;2024-03-06T05:17:27;65.28;;;27.40;;
38851;SDS011;24605;50.092;9.182;2024-03-06T05:19:54;70.60;;;31.63;;
38851;SDS011;24605;50.092;9.182;2024-03-06T05:22:20;67.55;;;30.33;;
38851;SDS011;24605;50.092;9.182;2024-03-06T05:24:48;79.00;;;30.73;;
38851;SDS011;24605;50.092;9.182;2024-03-06T05:27:14;91.20;;;33.22;;
38851;SDS011;24605;50.092;9.182;2024-03-06T05:29:43;85.93;;;33.75;;
38851;SDS011;24605;50.092;9.182;2024-03-06T05:32:10;91.93;;;32.40;;
38851;SDS011;24605;50.092;9.182;2024-03-06T05:34:36;93.25;;;34.92;;
38851;SDS011;24605;50.092;9.182;2024-03-06T05:37:03;106.95;;;35.58;;
38851;SDS011;24605;50.092;9.182;2024-03-06T05:39:30;104.53;;;35.28;;
38851;SDS011;24605;50.092;9.182;2024-03-06T05:41:59;101.03;;;34.65;;
38851;SDS011;24605;50.092;9.182;2024-03-06T05:44:27;98.15;;;35.00;;
38851;SDS011;24605;50.092;9.182;2024-03-06T05:46:55;113.88;;;36.03;;
38851;SDS011;24605;50.092;9.182;2024-03-06T05:49:23;99.47;;;34.00;;
38851;SDS011;24605;50.092;9.182;2024-03-06T05:51:51;97.18;;;35.17;;
38851;SDS011;24605;50.092;9.182;2024-03-06T05:54:19;101.93;;;35.10;;
38851;SDS011;24605;50.092;9.182;2024-03-06T05:56:47;110.97;;;36.80;;
38851;SDS011;24605;50.092;9.182;2024-03-06T05:59:14;96.38;;;33.90;;
38851;SDS011;24605;50.092;9.182;2024-03-06T06:01:40;76.75;;;29.60;;
38851;SDS011;24605;50.092;9.182;2024-03-06T06:04:09;103.30;;;23.60;;
38851;SDS011;24605;50.092;9.182;2024-03-06T06:06:35;46.17;;;20.80;;
38851;SDS011;24605;50.092;9.182;2024-03-06T06:09:02;118.97;;;24.65;;
38851;SDS011;24605;50.092;9.182;2024-03-06T06:11:31;69.85;;;24.13;;
38851;SDS011;24605;50.092;9.182;2024-03-06T06:13:57;96.28;;;27.35;;
38851;SDS011;24605;50.092;9.182;2024-03-06T06:16:24;76.10;;;24.73;;
38851;SDS011;24605;50.092;9.182;2024-03-06T06:18:52;96.57;;;26.50;;
38851;SDS011;24605;50.092;9.182;2024-03-06T06:21:20;62.10;;;23.90;;
38851;SDS011;24605;50.092;9.182;2024-03-06T06:23:46;64.05;;;25.05;;
38851;SDS011;24605;50.092;9.182;2024-03-06T06:26:13;86.95;;;25.10;;
38851;SDS011;24605;50.092;9.182;2024-03-06T06:28:40;62.38;;;24.60;;
38851;SDS011;24605;50.092;9.182;2024-03-06T06:31:07;141.88;;;27.45;;
38851;SDS011;24605;50.092;9.182;2024-03-06T06:33:33;108.00;;;26.58;;
38851;SDS011;24605;50.092;9.182;2024-03-06T06:36:00;60.50;;;23.77;;
38851;SDS011;24605;50.092;9.182;2024-03-06T06:38:28;55.95;;;24.98;;
38851;SDS011;24605;50.092;9.182;2024-03-06T06:40:54;235.45;;;30.48;;
38851;SDS011;24605;50.092;9.182;2024-03-06T06:43:21;168.52;;;30.10;;
38851;SDS011;24605;50.092;9.182;2024-03-06T06:45:48;216.07;;;30.90;;
38851;SDS011;24605;50.092;9.182;2024-03-06T06:48:15;161.15;;;27.55;;
38851;SDS011;24605;50.092;9.182;2024-03-06T06:50:43;57.25;;;22.73;;
38851;SDS011;24605;50.092;9.182;2024-03-06T06:53:12;86.53;;;26.02;;
38851;SDS011;24605;50.092;9.182;2024-03-06T06:55:40;96.72;;;25.92;;
38851;SDS011;24605;50.092;9.182;2024-03-06T06:58:08;61.58;;;23.15;;
38851;SDS011;24605;50.092;9.182;2024-03-06T07:00:34;133.00;;;25.75;;
38851;SDS011;24605;50.092;9.182;2024-03-06T07:03:02;159.30;;;28.25;;
38851;SDS011;24605;50.092;9.182;2024-03-06T07:05:29;108.78;;;27.83;;
38851;SDS011;24605;50.092;9.182;2024-03-06T07:07:55;102.93;;;27.30;;
38851;SDS011;24605;50.092;9.182;2024-03-06T07:10:23;61.78;;;23.42;;
38851;SDS011;24605;50.092;9.182;2024-03-06T07:12:51;66.72;;;25.10;;
38851;SDS011;24605;50.092;9.182;2024-03-06T07:15:17;69.18;;;25.17;;
38851;SDS011;24605;50.092;9.182;2024-03-06T07:17:44;69.88;;;24.33;;
38851;SDS011;24605;50.092;9.182;2024-03-06T07:20:10;73.35;;;26.45;;
38851;SDS011;24605;50.092;9.182;2024-03-06T07:22:37;76.68;;;26.67;;
38851;SDS011;24605;50.092;9.182;2024-03-06T07:25:03;76.93;;;27.25;;
38851;SDS011;24605;50.092;9.182;2024-03-06T07:27:30;75.05;;;27.42;;
38851;SDS011;24605;50.092;9.182;2024-03-06T07:29:58;77.70;;;27.85;;
38851;SDS011;24605;50.092;9.182;2024-03-06T07:32:25;70.90;;;27.40;;
38851;SDS011;24605;50.092;9.182;2024-03-06T07:34:51;79.68;;;28.25;;
38851;SDS011;24605;50.092;9.182;2024-03-06T07:37:18;67.82;;;26.13;;
38851;SDS011;24605;50.092;9.182;2024-03-06T07:39:44;76.78;;;28.42;;
38851;SDS011;24605;50.092;9.182;2024-03-06T07:42:11;85.25;;;28.42;;
38851;SDS011;24605;50.092;9.182;2024-03-06T07:44:37;78.80;;;28.55;;
38851;SDS011;24605;50.092;9.182;2024-03-06T07:47:06;79.13;;;27.85;;
38851;SDS011;24605;50.092;9.182;2024-03-06T07:49:33;77.57;;;27.60;;
38851;SDS011;24605;50.092;9.182;2024-03-06T07:52:03;83.03;;;28.23;;
38851;SDS011;24605;50.092;9.182;2024-03-06T07:54:30;76.57;;;26.33;;
38851;SDS011;24605;50.092;9.182;2024-03-06T07:56:58;88.55;;;30.20;;
38851;SDS011;24605;50.092;9.182;2024-03-06T07:59:24;85.05;;;30.58;;
38851;SDS011;24605;50.092;9.182;2024-03-06T08:01:50;79.82;;;31.15;;
38851;SDS011;24605;50.092;9.182;2024-03-06T08:04:18;82.72;;;29.73;;
38851;SDS011;24605;50.092;9.182;2024-03-06T08:06:45;77.57;;;30.90;;
38851;SDS011;24605;50.092;9.182;2024-03-06T08:09:11;72.32;;;29.80;;
38851;SDS011;24605;50.092;9.182;2024-03-06T08:11:38;67.00;;;27.20;;
38851;SDS011;24605;50.092;9.182;2024-03-06T08:14:05;79.85;;;32.88;;
38851;SDS011;24605;50.092;9.182;2024-03-06T08:16:32;74.50;;;30.55;;
38851;SDS011;24605;50.092;9.182;2024-03-06T08:18:59;69.32;;;29.88;;
38851;SDS011;24605;50.092;9.182;2024-03-06T08:21:27;66.97;;;29.05;;
38851;SDS011;24605;50.092;9.182;2024-03-06T08:23:53;70.88;;;29.30;;
38851;SDS011;24605;50.092;9.182;2024-03-06T08:26:19;74.40;;;29.40;;
38851;SDS011;24605;50.092;9.182;2024-03-06T08:28:46;58.88;;;25.48;;
38851;SDS011;24605;50.092;9.182;2024-03-06T08:31:14;68.55;;;27.40;;
38851;SDS011;24605;50.092;9.182;2024-03-06T08:33:40;64.30;;;26.42;;
38851;SDS011;24605;50.092;9.182;2024-03-06T08:36:07;62.53;;;27.98;;
38851;SDS011;24605;50.092;9.182;2024-03-06T08:38:35;61.60;;;27.17;;
38851;SDS011;24605;50.092;9.182;2024-03-06T08:41:01;62.28;;;26.15;;
38851;SDS011;24605;50.092;9.182;2024-03-06T08:43:28;53.75;;;22.73;;
38851;SDS011;24605;50.092;9.182;2024-03-06T08:45:54;54.45;;;23.00;;
38851;SDS011;24605;50.092;9.182;2024-03-06T08:48:21;54.55;;;23.85;;
38851;SDS011;24605;50.092;9.182;2024-03-06T08:50:47;44.55;;;21.05;;
38851;SDS011;24605;50.092;9.182;2024-03-06T08:53:15;49.95;;;22.30;;
38851;SDS011;24605;50.092;9.182;2024-03-06T08:55:44;49.20;;;21.25;;
38851;SDS011;24605;50.092;9.182;2024-03-06T08:58:10;50.85;;;21.92;;
38851;SDS011;24605;50.092;9.182;2024-03-06T09:00:39;46.65;;;19.77;;
38851;SDS011;24605;50.092;9.182;2024-03-06T09:03:05;43.97;;;19.90;;
38851;SDS011;24605;50.092;9.182;2024-03-06T09:05:32;44.20;;;19.75;;
38851;SDS011;24605;50.092;9.182;2024-03-06T09:07:59;47.42;;;20.85;;
38851;SDS011;24605;50.092;9.182;2024-03-06T09:10:25;40.17;;;19.17;;
38851;SDS011;24605;50.092;9.182;2024-03-06T09:12:53;39.03;;;18.50;;
38851;SDS011;24605;50.092;9.182;2024-03-06T09:15:19;38.63;;;18.15;;
38851;SDS011;24605;50.092;9.182;2024-03-06T09:17:46;35.88;;;17.08;;
38851;SDS011;24605;50.092;9.182;2024-03-06T09:20:13;39.20;;;17.63;;
38851;SDS011;24605;50.092;9.182;2024-03-06T09:22:41;36.92;;;16.98;;
38851;SDS011;24605;50.092;9.182;2024-03-06T09:25:08;35.42;;;16.50;;
38851;SDS011;24605;50.092;9.182;2024-03-06T09:27:35;34.50;;;15.93;;
38851;SDS011;24605;50.092;9.182;2024-03-06T09:30:06;34.85;;;15.93;;
38851;SDS011;24605;50.092;9.182;2024-03-06T09:32:35;35.30;;;15.73;;
38851;SDS011;24605;50.092;9.182;2024-03-06T09:35:01;31.10;;;15.07;;
38851;SDS011;24605;50.092;9.182;2024-03-06T09:37:28;32.25;;;15.00;;
38851;SDS011;24605;50.092;9.182;2024-03-06T09:39:55;33.35;;;15.15;;
38851;SDS011;24605;50.092;9.182;2024-03-06T09:42:22;31.70;;;14.25;;
38851;SDS011;24605;50.092;9.182;2024-03-06T09:44:49;33.35;;;14.85;;
38851;SDS011;24605;50.092;9.182;2024-03-06T09:47:18;33.28;;;15.10;;
38851;SDS011;24605;50.092;9.182;2024-03-06T09:49:50;35.45;;;16.73;;
38851;SDS011;24605;50.092;9.182;2024-03-06T09:52:18;33.70;;;16.00;;
38851;SDS011;24605;50.092;9.182;2024-03-06T09:54:45;32.10;;;15.10;;
38851;SDS011;24605;50.092;9.182;2024-03-06T09:57:12;31.33;;;15.00;;
38851;SDS011;24605;50.092;9.182;2024-03-06T09:59:40;30.98;;;15.25;;
38851;SDS011;24605;50.092;9.182;2024-03-06T10:02:10;31.48;;;15.30;;
38851;SDS011;24605;50.092;9.182;2024-03-06T10:04:57;36.33;;;16.13;;
38851;SDS011;24605;50.092;9.182;2024-03-06T10:07:23;31.95;;;15.52;;
38851;SDS011;24605;50.092;9.182;2024-03-06T10:09:52;33.28;;;16.58;;
38851;SDS011;24605;50.092;9.182;2024-03-06T10:12:18;33.67;;;16.45;;
38851;SDS011;24605;50.092;9.182;2024-03-06T10:14:48;33.85;;;16.70;;
38851;SDS011;24605;50.092;9.182;2024-03-06T10:17:20;35.22;;;17.00;;
38851;SDS011;24605;50.092;9.182;2024-03-06T10:19:48;33.90;;;16.67;;
38851;SDS011;24605;50.092;9.182;2024-03-06T10:22:16;35.00;;;16.17;;
38851;SDS011;24605;50.092;9.182;2024-03-06T10:24:44;35.28;;;16.77;;
38851;SDS011;24605;50.092;9.182;2024-03-06T10:27:14;30.63;;;15.40;;
38851;SDS011;24605;50.092;9.182;2024-03-06T10:29:42;31.65;;;16.02;;
38851;SDS011;24605;50.092;9.182;2024-03-06T10:32:09;33.30;;;16.25;;
38851;SDS011;24605;50.092;9.182;2024-03-06T10:34:37;34.25;;;16.13;;
38851;SDS011;24605;50.092;9.182;2024-03-06T10:37:05;34.88;;;15.88;;
38851;SDS011;24605;50.092;9.182;2024-03-06T10:39:33;32.28;;;15.85;;
38851;SDS011;24605;50.092;9.182;2024-03-06T10:42:02;38.80;;;18.15;;
38851;SDS011;24605;50.092;9.182;2024-03-06T10:44:30;32.83;;;15.75;;
38851;SDS011;24605;50.092;9.182;2024-03-06T10:47:00;37.55;;;16.88;;
38851;SDS011;24605;50.092;9.182;2024-03-06T10:49:28;31.63;;;14.77;;
38851;SDS011;24605;50.092;9.182;2024-03-06T10:51:58;34.80;;;15.70;;
38851;SDS011;24605;50.092;9.182;2024-03-06T10:54:29;30.52;;;15.05;;
38851;SDS011;24605;50.092;9.182;2024-03-06T10:56:57;32.38;;;14.77;;
38851;SDS011;24605;50.092;9.182;2024-03-06T10:59:25;35.25;;;15.77;;
38851;SDS011;24605;50.092;9.182;2024-03-06T11:01:53;33.72;;;15.70;;
38851;SDS011;24605;50.092;9.182;2024-03-06T11:04:22;28.80;;;12.90;;
38851;SDS011;24605;50.092;9.182;2024-03-06T11:06:53;25.02;;;11.70;;
38851;SDS011;24605;50.092;9.182;2024-03-06T11:09:21;27.67;;;13.52;;
38851;SDS011;24605;50.092;9.182;2024-03-06T11:11:49;26.63;;;12.57;;
38851;SDS011;24605;50.092;9.182;2024-03-06T11:14:17;28.63;;;13.52;;
38851;SDS011;24605;50.092;9.182;2024-03-06T11:16:56;24.50;;;12.63;;
38851;SDS011;24605;50.092;9.182;2024-03-06T11:19:24;27.88;;;13.80;;
38851;SDS011;24605;50.092;9.182;2024-03-06T11:21:50;31.30;;;15.27;;
38851;SDS011;24605;50.092;9.182;2024-03-06T11:24:22;30.48;;;15.30;;
38851;SDS011;24605;50.092;9.182;2024-03-06T11:26:50;29.88;;;15.13;;
38851;SDS011;24605;50.092;9.182;2024-03-06T11:30:02;27.35;;;13.60;;
38851;SDS011;24605;50.092;9.182;2024-03-06T11:32:29;27.17;;;13.63;;
38851;SDS011;24605;50.092;9.182;2024-03-06T11:34:56;28.95;;;13.75;;
38851;SDS011;24605;50.092;9.182;2024-03-06T11:37:22;25.27;;;12.95;;
38851;SDS011;24605;50.092;9.182;2024-03-06T11:39:51;27.73;;;13.80;;
38851;SDS011;24605;50.092;9.182;2024-03-06T11:42:32;23.50;;;12.52;;
38851;SDS011;24605;50.092;9.182;2024-03-06T11:50:23;23.95;;;12.88;;
38851;SDS011;24605;50.092;9.182;2024-03-06T11:52:53;25.95;;;13.40;;
38851;SDS011;24605;50.092;9.182;2024-03-06T11:55:22;25.15;;;13.38;;
38851;SDS011;24605;50.092;9.182;2024-03-06T11:57:50;25.00;;;13.32;;
38851;SDS011;24605;50.092;9.182;2024-03-06T12:00:18;23.50;;;13.90;;
38851;SDS011;24605;50.092;9.182;2024-03-06T12:02:47;25.73;;;13.18;;
38851;SDS011;24605;50.092;9.182;2024-03-06T12:05:14;25.42;;;13.40;;
38851;SDS011;24605;50.092;9.182;2024-03-06T12:07:47;25.02;;;13.50;;
38851;SDS011;24605;50.092;9.182;2024-03-06T12:10:15;24.55;;;13.63;;
38851;SDS011;24605;50.092;9.182;2024-03-06T12:12:43;25.42;;;13.30;;
38851;SDS011;24605;50.092;9.182;2024-03-06T12:15:11;24.48;;;12.70;;
38851;SDS011;24605;50.092;9.182;2024-03-06T12:17:42;24.25;;;12.88;;
38851;SDS011;24605;50.092;9.182;2024-03-06T12:20:11;24.35;;;12.75;;
38851;SDS011;24605;50.092;9.182;2024-03-06T12:22:43;24.17;;;12.52;;
38851;SDS011;24605;50.092;9.182;2024-03-06T12:25:10;24.73;;;12.32;;
38851;SDS011;24605;50.092;9.182;2024-03-06T12:27:36;24.98;;;12.55;;
38851;SDS011;24605;50.092;9.182;2024-03-06T12:30:09;22.38;;;11.75;;
38851;SDS011;24605;50.092;9.182;2024-03-06T12:32:38;22.45;;;11.95;;
38851;SDS011;24605;50.092;9.182;2024-03-06T12:35:05;22.48;;;10.82;;
38851;SDS011;24605;50.092;9.182;2024-03-06T12:37:32;20.48;;;10.82;;
38851;SDS011;24605;50.092;9.182;2024-03-06T12:39:58;18.60;;;9.95;;
38851;SDS011;24605;50.092;9.182;2024-03-06T12:42:26;18.75;;;10.30;;
38851;SDS011;24605;50.092;9.182;2024-03-06T12:44:53;18.33;;;9.68;;
38851;SDS011;24605;50.092;9.182;2024-03-06T12:47:21;18.90;;;9.75;;
38851;SDS011;24605;50.092;9.182;2024-03-06T12:49:48;19.70;;;10.07;;
38851;SDS011;24605;50.092;9.182;2024-03-06T12:52:16;18.42;;;10.30;;
38851;SDS011;24605;50.092;9.182;2024-03-06T12:54:42;19.17;;;10.32;;
38851;SDS011;24605;50.092;9.182;2024-03-06T12:57:08;17.67;;;9.30;;
38851;SDS011;24605;50.092;9.182;2024-03-06T12:59:35;18.02;;;10.25;;
38851;SDS011;24605;50.092;9.182;2024-03-06T13:02:01;18.20;;;9.50;;
38851;SDS011;24605;50.092;9.182;2024-03-06T13:04:29;15.98;;;8.70;;
38851;SDS011;24605;50.092;9.182;2024-03-06T13:06:56;16.52;;;8.80;;
38851;SDS011;24605;50.092;9.182;2024-03-06T13:09:22;15.63;;;8.90;;
38851;SDS011;24605;50.092;9.182;2024-03-06T13:11:49;20.52;;;9.27;;
38851;SDS011;24605;50.092;9.182;2024-03-06T13:14:16;15.55;;;9.00;;
38851;SDS011;24605;50.092;9.182;2024-03-06T13:16:43;15.02;;;8.63;;
38851;SDS011;24605;50.092;9.182;2024-03-06T13:19:10;17.58;;;8.98;;
38851;SDS011;24605;50.092;9.182;2024-03-06T13:21:38;17.60;;;9.75;;
38851;SDS011;24605;50.092;9.182;2024-03-06T13:24:05;16.50;;;8.48;;
38851;SDS011;24605;50.092;9.182;2024-03-06T13:26:32;15.10;;;8.73;;
38851;SDS011;24605;50.092;9.182;2024-03-06T13:28:59;16.23;;;8.48;;
38851;SDS011;24605;50.092;9.182;2024-03-06T13:31:25;13.88;;;7.88;;
38851;SDS011;24605;50.092;9.182;2024-03-06T13:33:52;13.05;;;7.47;;
38851;SDS011;24605;50.092;9.182;2024-03-06T13:36:19;14.30;;;7.90;;
38851;SDS011;24605;50.092;9.182;2024-03-06T13:38:48;13.60;;;7.97;;
38851;SDS011;24605;50.092;9.182;2024-03-06T13:41:15;15.63;;;7.45;;
38851;SDS011;24605;50.092;9.182;2024-03-06T13:43:41;13.70;;;7.70;;
38851;SDS011;24605;50.092;9.182;2024-03-06T13:46:08;14.50;;;8.40;;
38851;SDS011;24605;50.092;9.182;2024-03-06T13:48:34;16.15;;;8.13;;
38851;SDS011;24605;50.092;9.182;2024-03-06T13:51:01;18.30;;;8.77;;
38851;SDS011;24605;50.092;9.182;2024-03-06T13:53:28;20.92;;;11.63;;
38851;SDS011;24605;50.092;9.182;2024-03-06T13:55:56;18.45;;;10.50;;
38851;SDS011;24605;50.092;9.182;2024-03-06T13:58:24;20.67;;;11.48;;
38851;SDS011;24605;50.092;9.182;2024-03-06T14:00:51;19.98;;;11.38;;
38851;SDS011;24605;50.092;9.182;2024-03-06T14:03:18;23.10;;;11.60;;
38851;SDS011;24605;50.092;9.182;2024-03-06T14:05:45;20.90;;;10.95;;
38851;SDS011;24605;50.092;9.182;2024-03-06T14:08:11;21.20;;;12.10;;
38851;SDS011;24605;50.092;9.182;2024-03-06T14:10:38;20.17;;;10.85;;
38851;SDS011;24605;50.092;9.182;2024-03-06T14:13:06;18.40;;;10.25;;
38851;SDS011;24605;50.092;9.182;2024-03-06T14:15:33;19.85;;;10.45;;
38851;SDS011;24605;50.092;9.182;2024-03-06T14:18:00;17.00;;;10.05;;
38851;SDS011;24605;50.092;9.182;2024-03-06T14:20:27;16.65;;;9.60;;
38851;SDS011;24605;50.092;9.182;2024-03-06T14:22:54;15.98;;;9.27;;
38851;SDS011;24605;50.092;9.182;2024-03-06T14:25:21;17.88;;;9.40;;
38851;SDS011;24605;50.092;9.182;2024-03-06T14:27:48;18.27;;;9.85;;